F/V Berriz Patxiku — ECES — position and weather

sailwx.info

Track history (hours):
 
Tides and Currents Weather Stations Pressure Air Temp Water Temp Dewpoint Dewpoint Depression Visibility Wind Speed Wind Dir Waves Ship Positions

F/V Berriz Patxiku

Last reported at 2015-Jun-30 20:09 UTC. Time now 2015-Jun-30 21:21 UTC.
Position N 43°36' W 003°44'.

Length 30 m.

Type: Fishing. MMSI: 224106260.

Date/timePositionNaut miles runAvg speedWind from/ knotsBaromVisibWave heightAir tempDewpointWater temp
2015-Jun-30 20:09N 43°36' W 003°44'6 8.3
2015-Jun-30 19:25N 43°37' W 003°36'26 8.5
2015-Jun-30 16:20N 43°31' W 003°01'25 9.0
2015-Jun-30 13:32N 43°23' W 002°28'12 2.0
2015-Jun-30 07:26N 43°18' W 002°12'0 0.0
2015-Jun-30 06:28N 43°18' W 002°12'0 0.0
2015-Jun-30 05:33N 43°18' W 002°12'0 0.0
2015-Jun-30 04:34N 43°18' W 002°12'7 7.3
2015-Jun-30 03:33N 43°21' W 002°03'8 8.2
2015-Jun-30 02:33N 43°24' W 001°52'10 9.6
2015-Jun-30 01:33N 43°33' W 001°49'5 4.7
2015-Jun-30 00:32N 43°38' W 001°48'1 0.8
2015-Jun-29 23:33N 43°39' W 001°47'1 0.9
2015-Jun-29 22:33N 43°40' W 001°47'2 1.9
2015-Jun-29 21:33N 43°41' W 001°47'3 3.1
2015-Jun-29 20:32N 43°45' W 001°46'2 2.3
2015-Jun-29 19:33N 43°43' W 001°47'4 4.3
2015-Jun-29 18:33N 43°38' W 001°49'6 6.4
2015-Jun-29 17:33N 43°33' W 001°54'7 6.7
2015-Jun-29 16:33N 43°28' W 001°60'7 6.8
2015-Jun-29 15:32N 43°23' W 002°06'  
2015-Jun-26 01:31N 43°18' W 002°12'1 0.5
2015-Jun-26 00:33N 43°19' W 002°11'3 2.9
2015-Jun-25 23:31N 43°21' W 002°09'1 0.7
2015-Jun-25 22:32N 43°21' W 002°08'1 0.5
2015-Jun-25 21:31N 43°21' W 002°08'1 0.7
2015-Jun-25 20:33N 43°21' W 002°07'4 3.9
2015-Jun-25 19:33N 43°19' W 002°11'4 0.3
2015-Jun-25 03:30N 43°22' W 002°16'10 1.5
2015-Jun-24 20:33N 43°27' W 002°28'1 1.3
2015-Jun-24 19:30N 43°27' W 002°30'8 8.3
2015-Jun-24 18:31N 43°31' W 002°40'7 7.4
2015-Jun-24 17:33N 43°30' W 002°50'26 0.6
2015-Jun-22 19:23N 43°25' W 003°25'1 1.6
2015-Jun-22 18:34N 43°26' W 003°25'10 9.8
2015-Jun-22 17:32N 43°34' W 003°35'8 7.4
2015-Jun-22 16:27N 43°39' W 003°43'0 0.1
2015-Jun-22 15:33N 43°39' W 003°43'7 6.3
2015-Jun-22 14:27N 43°36' W 003°52'24 2.3
2015-Jun-22 04:04N 43°36' W 003°18'8 8.7
2015-Jun-22 03:05N 43°35' W 003°07'22 8.6
2015-Jun-22 00:31N 43°29' W 002°37'9 9.0
2015-Jun-21 23:33N 43°25' W 002°27'9 9.2
2015-Jun-21 22:33N 43°20' W 002°16'  
Track history (hours):
 
Tides and Currents Weather Stations Pressure Air Temp Water Temp Dewpoint Dewpoint Depression Visibility Wind Speed Wind Dir Waves Ship Positions

F/V Berriz Patxiku

Last reported at 2015-Jun-30 20:09 UTC. Time now 2015-Jun-30 21:21 UTC.
Position N 43°36' W 003°44'.

Length 30 m.

Type: Fishing. MMSI: 224106260.

Date/timePositionNaut miles runAvg speedWind from/ knotsBaromVisibWave heightAir tempDewpointWater temp
2015-Jun-30 20:09N 43°36' W 003°44'6 8.3
2015-Jun-30 19:25N 43°37' W 003°36'26 8.5
2015-Jun-30 16:20N 43°31' W 003°01'25 9.0
2015-Jun-30 13:32N 43°23' W 002°28'12 2.0
2015-Jun-30 07:26N 43°18' W 002°12'0 0.0
2015-Jun-30 06:28N 43°18' W 002°12'0 0.0
2015-Jun-30 05:33N 43°18' W 002°12'0 0.0
2015-Jun-30 04:34N 43°18' W 002°12'7 7.3
2015-Jun-30 03:33N 43°21' W 002°03'8 8.2
2015-Jun-30 02:33N 43°24' W 001°52'10 9.6
2015-Jun-30 01:33N 43°33' W 001°49'5 4.7
2015-Jun-30 00:32N 43°38' W 001°48'1 0.8
2015-Jun-29 23:33N 43°39' W 001°47'1 0.9
2015-Jun-29 22:33N 43°40' W 001°47'2 1.9
2015-Jun-29 21:33N 43°41' W 001°47'3 3.1
2015-Jun-29 20:32N 43°45' W 001°46'2 2.3
2015-Jun-29 19:33N 43°43' W 001°47'4 4.3
2015-Jun-29 18:33N 43°38' W 001°49'6 6.4
2015-Jun-29 17:33N 43°33' W 001°54'7 6.7
2015-Jun-29 16:33N 43°28' W 001°60'7 6.8
2015-Jun-29 15:32N 43°23' W 002°06'  
2015-Jun-26 01:31N 43°18' W 002°12'1 0.5
2015-Jun-26 00:33N 43°19' W 002°11'3 2.9
2015-Jun-25 23:31N 43°21' W 002°09'1 0.7
2015-Jun-25 22:32N 43°21' W 002°08'1 0.5
2015-Jun-25 21:31N 43°21' W 002°08'1 0.7
2015-Jun-25 20:33N 43°21' W 002°07'4 3.9
2015-Jun-25 19:33N 43°19' W 002°11'4 0.3
2015-Jun-25 03:30N 43°22' W 002°16'10 1.5
2015-Jun-24 20:33N 43°27' W 002°28'1 1.3
2015-Jun-24 19:30N 43°27' W 002°30'8 8.3
2015-Jun-24 18:31N 43°31' W 002°40'7 7.4
2015-Jun-24 17:33N 43°30' W 002°50'26 0.6
2015-Jun-22 19:23N 43°25' W 003°25'1 1.6
2015-Jun-22 18:34N 43°26' W 003°25'10 9.8
2015-Jun-22 17:32N 43°34' W 003°35'8 7.4
2015-Jun-22 16:27N 43°39' W 003°43'0 0.1
2015-Jun-22 15:33N 43°39' W 003°43'7 6.3
2015-Jun-22 14:27N 43°36' W 003°52'24 2.3
2015-Jun-22 04:04N 43°36' W 003°18'8 8.7
2015-Jun-22 03:05N 43°35' W 003°07'22 8.6
2015-Jun-22 00:31N 43°29' W 002°37'9 9.0
2015-Jun-21 23:33N 43°25' W 002°27'9 9.2
2015-Jun-21 22:33N 43°20' W 002°16'  

Dump ship's entire track history